Time;durP1;ratioP1;P1;durP2;ratioP2;P2;SDS_P1;SDS_P2;PMS_P1;PMS_P2;Temp;Humidity;BMP_temperature;BMP_pressure;BME280_temperature;BME280_humidity;BME280_pressure;Samples;Min_cycle;Max_cycle;Signal;HPM_P1;HPM_P2
2022/03/30 00:00:56;;;;;;;50.40;30.90;;;;;;;8.32;53.75;97960.70;106276;1271;97963;-73
2022/03/30 00:03:27;;;;;;;52.50;31.50;;;;;;;8.33;53.98;97959.52;106088;1271;108399;-70
2022/03/30 00:05:57;;;;;;;54.30;31.70;;;;;;;8.33;53.90;97965.94;106092;1271;97971;-68
2022/03/30 00:08:26;;;;;;;51.50;31.00;;;;;;;8.33;54.03;97961.31;106082;1271;97832;-68
2022/03/30 00:10:54;;;;;;;54.60;32.20;;;;;;;8.29;53.66;97961.60;107911;1271;112008;-68
2022/03/30 00:13:22;;;;;;;54.30;32.70;;;;;;;8.26;54.00;97960.08;107462;1271;97954;-66
2022/03/30 00:15:51;;;;;;;52.30;31.70;;;;;;;8.26;53.98;97963.13;107550;1270;108498;-68
2022/03/30 00:18:22;;;;;;;54.30;32.50;;;;;;;8.26;54.06;97957.85;106119;1271;97957;-69
2022/03/30 00:20:51;;;;;;;53.90;33.90;;;;;;;8.20;53.81;97957.73;106315;1271;96393;-69
2022/03/30 00:23:21;;;;;;;53.70;31.40;;;;;;;8.17;54.09;97957.29;106137;1271;112289;-69
2022/03/30 00:25:52;;;;;;;52.30;30.20;;;;;;;8.18;54.14;97957.36;106163;1271;97970;-69
2022/03/30 00:28:21;;;;;;;52.10;31.80;;;;;;;8.17;54.29;97951.65;106077;1271;107689;-67
2022/03/30 00:30:51;;;;;;;54.60;31.20;;;;;;;8.18;54.39;97957.16;106101;1271;97008;-68
2022/03/30 00:33:23;;;;;;;52.30;31.30;;;;;;;8.19;54.44;97955.74;106136;1271;97972;-69
2022/03/30 00:35:55;;;;;;;51.50;31.40;;;;;;;8.17;54.40;97949.50;106072;1271;111605;-68
2022/03/30 00:38:25;;;;;;;49.40;29.60;;;;;;;8.16;54.40;97944.13;106220;1273;98004;-69
2022/03/30 00:40:53;;;;;;;50.00;29.50;;;;;;;8.14;54.27;97944.27;106041;1274;108402;-68
2022/03/30 00:43:23;;;;;;;50.70;31.10;;;;;;;8.14;54.79;97943.27;106060;1274;98009;-70
2022/03/30 00:45:52;;;;;;;51.40;31.40;;;;;;;8.14;54.57;97943.63;106095;1274;95361;-69
2022/03/30 00:48:23;;;;;;;51.20;31.00;;;;;;;8.14;54.60;97937.09;106099;1271;111780;-66
2022/03/30 00:50:51;;;;;;;55.40;31.90;;;;;;;8.12;54.48;97935.25;106161;1271;97717;-69
2022/03/30 00:53:20;;;;;;;51.50;31.10;;;;;;;8.06;54.49;97938.73;106118;1271;108388;-69
2022/03/30 00:55:55;;;;;;;52.10;31.00;;;;;;;8.03;54.36;97942.73;106126;1271;97878;-67
2022/03/30 00:58:25;;;;;;;55.50;32.70;;;;;;;7.98;54.74;97939.77;106060;1271;97920;-68
2022/03/30 01:00:58;;;;;;;49.30;31.70;;;;;;;7.92;54.56;97935.65;106123;1271;111954;-69
2022/03/30 01:03:26;;;;;;;53.40;32.80;;;;;;;7.88;54.82;97929.93;106191;1271;97739;-69
2022/03/30 01:05:54;;;;;;;51.50;32.60;;;;;;;7.88;54.89;97924.30;106120;1271;107573;-68
2022/03/30 01:08:22;;;;;;;54.10;33.10;;;;;;;7.89;54.83;97927.39;106205;1273;95249;-68
2022/03/30 01:10:55;;;;;;;51.90;30.80;;;;;;;7.89;54.95;97923.50;106128;1274;96963;-69
2022/03/30 01:13:25;;;;;;;50.40;31.30;;;;;;;7.90;54.89;97919.52;106085;1274;111026;-69
2022/03/30 01:15:53;;;;;;;55.80;32.10;;;;;;;7.88;55.11;97914.23;106137;1271;97860;-69
2022/03/30 01:18:22;;;;;;;51.80;31.50;;;;;;;7.87;54.79;97908.79;106103;1271;108182;-69
2022/03/30 01:20:57;;;;;;;50.20;31.80;;;;;;;7.88;54.94;97909.85;106160;1271;97988;-67
2022/03/30 01:23:25;;;;;;;50.50;32.30;;;;;;;7.87;54.94;97906.02;106153;1270;97828;-69
2022/03/30 01:25:53;;;;;;;53.70;32.20;;;;;;;7.87;55.23;97903.58;106181;1271;111571;-70
2022/03/30 01:28:28;;;;;;;56.90;32.20;;;;;;;7.86;54.99;97901.31;106149;1274;95199;-69
2022/03/30 01:33:48;;;;;;;54.70;32.50;;;;;;;7.86;55.44;97909.78;106132;1271;99018;-69
2022/03/30 01:36:22;;;;;;;54.60;33.10;;;;;;;7.85;55.43;97910.20;106170;1271;97108;-69
2022/03/30 01:38:50;;;;;;;55.20;33.20;;;;;;;7.85;55.21;97914.80;106182;1271;111365;-70
2022/03/30 01:41:19;;;;;;;52.70;33.20;;;;;;;7.84;55.24;97913.80;106202;1274;97980;-68
2022/03/30 01:43:49;;;;;;;55.60;33.50;;;;;;;7.83;55.44;97913.88;106139;1271;108352;-68
2022/03/30 01:46:25;;;;;;;56.00;34.60;;;;;;;7.84;55.40;97919.34;106187;1271;97844;-66
2022/03/30 01:48:53;;;;;;;55.70;32.90;;;;;;;7.82;55.43;97918.58;106185;1271;98567;-69
2022/03/30 01:51:21;;;;;;;55.20;33.10;;;;;;;7.82;55.27;97919.67;106103;1271;111982;-69
2022/03/30 01:53:49;;;;;;;53.50;33.80;;;;;;;7.82;55.59;97915.39;106165;1271;96395;-69
2022/03/30 01:56:18;;;;;;;52.20;31.10;;;;;;;7.83;55.57;97912.48;106119;1271;108257;-65
2022/03/30 01:58:48;;;;;;;52.20;32.20;;;;;;;7.81;55.50;97912.32;106089;1274;98631;-69
2022/03/30 02:01:16;;;;;;;54.50;33.60;;;;;;;7.81;55.52;97912.00;106099;1271;97924;-69
2022/03/30 02:03:42;;;;;;;52.00;31.40;;;;;;;7.79;55.52;97911.98;106114;1274;97308;-69
2022/03/30 02:06:12;;;;;;;53.60;31.40;;;;;;;7.75;55.44;97916.70;106182;1274;97968;-67
2022/03/30 02:08:42;;;;;;;55.20;30.60;;;;;;;7.72;55.41;97916.75;106199;1271;108336;-70
2022/03/30 02:11:13;;;;;;;49.50;30.40;;;;;;;7.71;55.46;97915.97;106169;1271;97908;-69
2022/03/30 02:13:44;;;;;;;50.50;30.80;;;;;;;7.67;55.44;97916.05;106240;1271;95276;-69
2022/03/30 02:16:12;;;;;;;53.70;32.00;;;;;;;7.67;55.74;97912.36;106175;1271;111459;-68
2022/03/30 02:18:42;;;;;;;50.70;31.40;;;;;;;7.67;55.53;97913.95;106079;1273;97860;-69
2022/03/30 02:21:10;;;;;;;51.70;31.40;;;;;;;7.67;55.72;97912.53;106110;1274;107692;-68
2022/03/30 02:23:45;;;;;;;52.40;32.20;;;;;;;7.68;55.64;97913.01;106158;1271;99326;-70
2022/03/30 02:26:16;;;;;;;49.70;30.30;;;;;;;7.66;55.64;97913.82;106204;1273;98592;-67
2022/03/30 02:28:53;;;;;;;52.00;30.80;;;;;;;7.64;55.50;97911.05;106069;1274;112099;-68
2022/03/30 02:31:25;;;;;;;53.30;30.70;;;;;;;7.63;55.76;97910.73;106087;1273;97850;-69
2022/03/30 02:33:53;;;;;;;50.90;30.80;;;;;;;7.64;56.16;97917.55;106100;1273;107646;-69
2022/03/30 02:36:21;;;;;;;52.20;31.00;;;;;;;7.61;55.95;97918.27;106116;1271;97985;-68
2022/03/30 02:38:55;;;;;;;50.50;30.90;;;;;;;7.59;55.68;97917.19;106209;1271;97835;-68
2022/03/30 02:41:23;;;;;;;55.50;32.40;;;;;;;7.56;55.87;97916.18;106159;1271;112379;-71
2022/03/30 02:43:52;;;;;;;56.60;31.60;;;;;;;7.55;55.97;97918.04;106204;1271;99357;-69
2022/03/30 02:46:19;;;;;;;50.70;30.30;;;;;;;7.55;55.92;97920.71;106200;1271;107658;-70
2022/03/30 02:48:50;;;;;;;52.70;31.60;;;;;;;7.53;55.97;97920.36;106137;1271;97898;-69
2022/03/30 02:51:20;;;;;;;47.10;30.10;;;;;;;7.53;56.20;97921.75;106145;1271;97968;-68
2022/03/30 02:53:49;;;;;;;52.50;31.50;;;;;;;7.50;56.01;97923.95;106089;1274;112025;-71
2022/03/30 02:56:16;;;;;;;51.70;31.90;;;;;;;7.42;55.75;97918.52;106268;1271;97879;-71
2022/03/30 02:58:44;;;;;;;55.70;31.90;;;;;;;7.38;55.87;97916.41;106124;1271;107690;-70
2022/03/30 03:01:12;;;;;;;53.00;32.70;;;;;;;7.29;56.10;97913.77;106166;1274;97839;-70
2022/03/30 03:03:44;;;;;;;50.20;32.30;;;;;;;7.20;56.05;97912.16;106113;1274;98489;-69
2022/03/30 03:06:17;;;;;;;54.30;33.10;;;;;;;7.12;56.00;97911.48;106127;1274;112051;-68
2022/03/30 03:08:48;;;;;;;54.50;31.10;;;;;;;7.07;56.05;97914.00;106200;1271;97872;-69
2022/03/30 03:11:20;;;;;;;56.10;32.20;;;;;;;7.00;55.79;97914.33;106122;1271;108804;-68
2022/03/30 03:13:48;;;;;;;53.50;32.70;;;;;;;6.94;56.06;97914.05;106098;1271;97961;-69
2022/03/30 03:16:19;;;;;;;54.90;33.30;;;;;;;6.92;56.07;97915.33;106100;1271;97836;-69
2022/03/30 03:18:50;;;;;;;54.10;32.20;;;;;;;6.87;55.85;97912.55;106129;1271;112878;-70
2022/03/30 03:21:18;;;;;;;54.00;32.60;;;;;;;6.81;55.91;97911.52;106089;1271;97975;-69
2022/03/30 03:23:46;;;;;;;55.20;33.00;;;;;;;6.80;56.17;97909.55;106097;1274;108232;-69
2022/03/30 03:26:17;;;;;;;51.60;31.80;;;;;;;6.75;56.18;97905.81;106150;1273;97940;-69
2022/03/30 03:28:45;;;;;;;57.10;33.60;;;;;;;6.76;56.27;97903.29;106149;1274;98422;-68
2022/03/30 03:31:13;;;;;;;56.10;33.40;;;;;;;6.78;56.28;97907.38;106103;1274;111152;-69
2022/03/30 03:33:44;;;;;;;51.40;31.20;;;;;;;6.80;56.28;97909.50;106077;1274;97995;-68
2022/03/30 03:36:22;;;;;;;51.80;31.20;;;;;;;6.82;56.27;97911.26;106063;1274;110373;-68
2022/03/30 03:38:50;;;;;;;56.30;32.80;;;;;;;6.82;56.52;97908.83;105902;1271;303763;-70
2022/03/30 03:41:20;;;;;;;53.30;31.00;;;;;;;6.78;56.28;97911.79;106109;1274;97963;-70
2022/03/30 03:43:48;;;;;;;54.30;31.60;;;;;;;6.75;56.29;97908.48;106165;1271;110947;-69
2022/03/30 03:46:16;;;;;;;54.90;31.40;;;;;;;6.73;56.47;97907.78;106164;1271;97876;-70
2022/03/30 03:48:44;;;;;;;52.40;30.80;;;;;;;6.67;56.44;97911.38;106131;1271;107714;-72
2022/03/30 03:51:12;;;;;;;57.30;31.80;;;;;;;6.66;56.50;97914.09;106099;1271;96308;-70
2022/03/30 03:53:40;;;;;;;55.00;32.00;;;;;;;6.65;56.47;97917.51;106092;1270;98576;-69
2022/03/30 03:56:10;;;;;;;58.40;31.90;;;;;;;6.63;56.57;97922.05;106099;1271;111936;-68
2022/03/30 03:58:39;;;;;;;50.50;31.20;;;;;;;6.62;56.54;97922.64;106107;1271;97810;-69
2022/03/30 04:01:09;;;;;;;61.60;33.00;;;;;;;6.63;56.73;97923.85;106085;1273;108366;-69
2022/03/30 04:03:38;;;;;;;52.50;31.40;;;;;;;6.62;56.83;97919.84;106093;1273;98007;-70
2022/03/30 04:06:10;;;;;;;55.90;31.70;;;;;;;6.64;56.66;97924.77;106140;1274;97970;-70
2022/03/30 04:08:38;;;;;;;51.30;29.60;;;;;;;6.64;56.69;97926.71;106087;1273;110526;-69
2022/03/30 04:11:06;;;;;;;53.50;30.40;;;;;;;6.65;56.89;97925.25;106179;1271;98412;-68
2022/03/30 04:13:38;;;;;;;51.20;31.20;;;;;;;6.69;56.80;97923.36;106111;1271;108362;-69
2022/03/30 04:16:09;;;;;;;55.80;31.70;;;;;;;6.71;56.71;97926.20;106113;1274;97984;-71
2022/03/30 04:18:37;;;;;;;50.60;31.90;;;;;;;6.73;56.90;97924.52;106183;1271;96302;-70
2022/03/30 04:21:05;;;;;;;53.10;30.30;;;;;;;6.75;56.88;97924.73;106146;1274;111449;-69
2022/03/30 04:23:33;;;;;;;55.10;31.20;;;;;;;6.77;57.06;97928.43;106171;1271;98057;-70
2022/03/30 04:26:01;;;;;;;56.30;32.10;;;;;;;6.79;56.96;97928.44;106191;1271;107456;-69
2022/03/30 04:28:40;;;;;;;54.50;32.70;;;;;;;6.81;57.08;97932.30;106192;1271;95178;-69
2022/03/30 04:31:12;;;;;;;53.80;31.80;;;;;;;6.82;57.08;97932.05;106164;1271;95345;-70
2022/03/30 04:33:40;;;;;;;54.20;31.10;;;;;;;6.84;56.99;97934.43;106151;1274;111554;-69
2022/03/30 04:36:08;;;;;;;54.70;31.10;;;;;;;6.86;57.08;97934.95;106250;1273;95816;-72
2022/03/30 04:38:36;;;;;;;53.20;30.70;;;;;;;6.88;56.92;97929.92;106202;1271;107744;-71
2022/03/30 04:41:08;;;;;;;55.20;33.10;;;;;;;6.90;57.01;97931.38;106165;1271;97940;-68
2022/03/30 04:43:36;;;;;;;49.70;29.40;;;;;;;6.89;57.07;97930.17;106170;1271;98656;-67
2022/03/30 04:46:11;;;;;;;52.20;31.70;;;;;;;6.91;57.17;97930.76;106144;1271;111951;-69
2022/03/30 04:48:39;;;;;;;53.60;31.90;;;;;;;6.92;57.02;97940.88;106102;1274;97851;-69
2022/03/30 04:51:10;;;;;;;54.40;30.50;;;;;;;6.93;57.09;97940.95;106118;1271;108327;-71
2022/03/30 04:53:38;;;;;;;58.10;32.50;;;;;;;6.93;57.06;97940.60;106079;1274;95284;-71
2022/03/30 04:56:09;;;;;;;51.60;31.90;;;;;;;6.94;57.13;97944.08;106159;1271;97838;-70
2022/03/30 04:58:39;;;;;;;54.60;31.70;;;;;;;6.94;57.12;97947.60;106186;1271;112106;-68
2022/03/30 05:01:07;;;;;;;52.50;30.60;;;;;;;6.95;57.33;97943.60;106183;1271;96339;-71
2022/03/30 05:03:36;;;;;;;54.60;32.50;;;;;;;6.97;57.13;97941.02;106277;1271;109132;-71
2022/03/30 05:06:06;;;;;;;52.90;32.30;;;;;;;6.98;57.24;97943.07;106179;1271;98538;-71
2022/03/30 05:08:34;;;;;;;57.70;32.00;;;;;;;6.98;57.04;97940.34;106166;1271;97874;-71
2022/03/30 05:11:02;;;;;;;54.80;33.00;;;;;;;6.99;57.23;97937.11;106101;1274;111163;-70
2022/03/30 05:13:30;;;;;;;52.50;31.10;;;;;;;7.01;57.29;97938.60;106102;1274;98476;-70
2022/03/30 05:15:58;;;;;;;50.90;30.70;;;;;;;7.02;57.36;97938.03;106152;1274;107765;-68
2022/03/30 05:18:29;;;;;;;54.90;31.50;;;;;;;7.05;57.44;97937.27;106168;1271;97969;-70
2022/03/30 05:21:05;;;;;;;56.00;32.40;;;;;;;7.06;57.32;97938.77;106154;1273;97956;-69
2022/03/30 05:23:36;;;;;;;51.50;29.80;;;;;;;7.08;57.16;97940.40;106217;1271;111196;-69
2022/03/30 05:26:08;;;;;;;51.20;29.80;;;;;;;7.09;57.35;97940.62;106199;1271;98432;-71
2022/03/30 05:28:38;;;;;;;53.20;31.30;;;;;;;7.10;57.33;97943.01;106138;1271;107859;-73
2022/03/30 05:31:09;;;;;;;51.90;29.80;;;;;;;7.12;57.23;97945.87;106134;1271;97933;-74
2022/03/30 05:33:38;;;;;;;53.70;31.60;;;;;;;7.13;57.47;97950.21;106151;1271;97876;-74
2022/03/30 05:36:10;;;;;;;49.80;29.10;;;;;;;7.15;57.47;97948.30;106163;1271;111951;-74
2022/03/30 05:38:41;;;;;;;48.90;29.40;;;;;;;7.17;57.40;97950.77;106250;1274;97941;-75
2022/03/30 05:41:09;;;;;;;49.10;28.80;;;;;;;7.20;57.44;97950.41;106171;1271;107692;-72
2022/03/30 05:43:44;;;;;;;51.60;29.90;;;;;;;7.22;57.29;97953.90;106182;1271;98368;-76
2022/03/30 05:46:12;;;;;;;54.60;31.80;;;;;;;7.24;57.53;97955.77;106264;1271;97962;-72
2022/03/30 05:48:40;;;;;;;48.80;29.00;;;;;;;7.27;57.39;97955.87;106124;1274;111362;-70
2022/03/30 05:51:08;;;;;;;53.20;31.40;;;;;;;7.29;57.30;97954.06;106202;1271;97959;-70
2022/03/30 05:53:36;;;;;;;49.70;29.60;;;;;;;7.32;57.25;97953.34;106047;1271;108838;-71
2022/03/30 05:56:05;;;;;;;57.70;31.80;;;;;;;7.38;57.29;97951.15;106168;1271;97953;-71
2022/03/30 05:58:33;;;;;;;50.40;28.60;;;;;;;7.40;57.44;97949.35;106130;1271;97865;-71
2022/03/30 06:01:07;;;;;;;47.40;27.50;;;;;;;7.43;57.50;97948.77;106104;1271;111381;-71
2022/03/30 06:03:37;;;;;;;47.00;26.90;;;;;;;7.47;57.48;97944.27;106127;1271;97944;-71
2022/03/30 06:06:14;;;;;;;50.90;28.20;;;;;;;7.51;57.34;97941.81;106121;1271;107636;-70
2022/03/30 06:08:44;;;;;;;49.20;28.40;;;;;;;7.55;57.34;97940.80;106172;1274;95806;-70
2022/03/30 06:11:12;;;;;;;49.60;27.70;;;;;;;7.58;57.33;97937.91;106133;1271;97937;-70
2022/03/30 06:13:40;;;;;;;48.20;28.10;;;;;;;7.62;57.31;97933.92;106305;1274;111277;-70
2022/03/30 06:16:08;;;;;;;53.10;27.60;;;;;;;7.64;57.13;97933.05;106202;1271;97967;-73
2022/03/30 06:18:37;;;;;;;49.60;26.90;;;;;;;7.62;57.01;97930.73;106154;1274;107620;-71
2022/03/30 06:21:07;;;;;;;47.80;27.90;;;;;;;7.64;57.16;97928.67;106053;1272;98831;-72
2022/03/30 06:23:37;;;;;;;46.30;26.10;;;;;;;7.68;57.13;97925.19;106003;1274;98012;-71
2022/03/30 06:26:08;;;;;;;43.80;26.00;;;;;;;7.74;57.23;97926.25;106136;1271;112164;-71
2022/03/30 06:28:36;;;;;;;43.10;25.30;;;;;;;7.80;57.42;97924.38;106069;1271;97973;-68
2022/03/30 06:31:06;;;;;;;45.20;24.50;;;;;;;7.85;57.21;97922.02;106085;1271;107735;-70
2022/03/30 06:33:34;;;;;;;44.80;25.30;;;;;;;7.92;57.07;97922.96;106050;1271;98375;-68
2022/03/30 06:36:05;;;;;;;46.20;24.80;;;;;;;7.99;57.27;97923.55;106039;1271;95267;-69
2022/03/30 06:38:33;;;;;;;46.00;25.20;;;;;;;8.07;57.36;97922.95;106054;1271;111448;-71
2022/03/30 06:41:03;;;;;;;40.90;22.80;;;;;;;8.15;57.31;97922.51;106009;1271;97815;-71
2022/03/30 06:43:31;;;;;;;42.00;24.60;;;;;;;8.20;57.07;97920.63;106096;1274;107735;-74
2022/03/30 06:45:59;;;;;;;45.60;24.80;;;;;;;8.24;57.28;97920.88;106246;1271;95994;-72
2022/03/30 06:48:28;;;;;;;40.10;21.10;;;;;;;8.29;57.24;97921.38;106147;1271;97869;-72
2022/03/30 06:50:58;;;;;;;38.20;20.40;;;;;;;8.35;57.04;97924.08;106001;1274;111338;-72
2022/03/30 06:53:26;;;;;;;43.50;22.20;;;;;;;8.40;56.93;97920.65;105840;1273;97869;-70
2022/03/30 06:55:54;;;;;;;43.20;23.50;;;;;;;8.44;56.81;97916.39;105915;1271;107769;-70
2022/03/30 06:58:22;;;;;;;51.70;26.30;;;;;;;8.50;56.95;97916.32;105932;1273;97940;-70
2022/03/30 07:00:53;;;;;;;38.60;22.80;;;;;;;8.51;56.71;97918.16;106008;1274;97950;-69
2022/03/30 07:03:22;;;;;;;43.10;22.60;;;;;;;8.40;56.62;97922.04;106081;1271;111006;-78
2022/03/30 07:05:50;;;;;;;38.70;21.80;;;;;;;8.41;56.84;97921.96;106099;1271;97870;-71
2022/03/30 07:11:06;;;;;;;43.20;23.60;;;;;;;8.47;56.77;97923.82;106024;1272;97878;-71
2022/03/30 07:13:35;;;;;;;39.60;21.30;;;;;;;8.48;56.71;97926.17;105952;1274;96806;-69
2022/03/30 07:16:04;;;;;;;35.70;20.50;;;;;;;8.52;56.73;97929.66;106120;1272;110375;-72
2022/03/30 07:18:36;;;;;;;40.30;22.40;;;;;;;8.56;56.68;97930.20;106016;1271;98524;-73
2022/03/30 07:21:04;;;;;;;41.40;23.00;;;;;;;8.58;56.52;97932.43;106084;1271;106769;-74
2022/03/30 07:23:32;;;;;;;40.70;20.60;;;;;;;8.61;56.58;97934.17;106087;1271;97844;-68
2022/03/30 07:26:02;;;;;;;38.90;21.70;;;;;;;8.63;56.44;97938.09;106202;1271;97846;-72
2022/03/30 07:28:31;;;;;;;39.50;21.10;;;;;;;8.71;56.47;97931.95;106203;1271;112682;-72
2022/03/30 07:31:01;;;;;;;40.20;22.00;;;;;;;8.81;56.42;97926.70;106188;1274;95278;-71
2022/03/30 07:33:29;;;;;;;40.10;21.00;;;;;;;8.89;56.35;97929.39;106174;1271;107717;-72
2022/03/30 07:35:59;;;;;;;43.20;21.20;;;;;;;8.96;56.30;97927.54;106185;1272;96497;-71
2022/03/30 07:38:27;;;;;;;39.30;20.50;;;;;;;9.08;56.43;97928.17;106244;1271;97985;-70
2022/03/30 07:41:00;;;;;;;40.60;21.60;;;;;;;9.26;56.50;97922.02;106175;1271;111045;-72
2022/03/30 07:43:29;;;;;;;42.50;20.00;;;;;;;9.46;56.48;97924.40;106147;1271;97985;-74
2022/03/30 07:45:57;;;;;;;35.50;19.30;;;;;;;9.65;56.44;97923.84;106094;1271;107768;-71
2022/03/30 07:48:25;;;;;;;32.40;17.80;;;;;;;9.89;56.35;97926.51;106131;1271;98061;-71
2022/03/30 07:50:54;;;;;;;34.70;17.30;;;;;;;10.07;56.23;97926.37;106220;1271;97834;-72
2022/03/30 07:53:29;;;;;;;33.20;17.10;;;;;;;10.27;56.20;97929.54;106349;1271;111177;-70
2022/03/30 07:55:58;;;;;;;38.30;18.90;;;;;;;10.46;56.07;97932.33;106165;1274;96654;-71
2022/03/30 07:58:26;;;;;;;33.80;17.90;;;;;;;10.61;56.09;97931.48;106140;1274;107608;-72
2022/03/30 08:00:54;;;;;;;33.30;18.60;;;;;;;10.80;56.00;97938.12;106218;1271;97975;-72
2022/03/30 08:03:22;;;;;;;34.40;18.80;;;;;;;11.00;55.87;97933.98;106364;1274;97762;-72
2022/03/30 08:05:50;;;;;;;36.30;19.30;;;;;;;11.22;55.86;97933.22;106189;1271;111460;-72
2022/03/30 08:08:18;;;;;;;34.90;19.00;;;;;;;11.40;55.82;97930.27;106214;1271;97850;-73
2022/03/30 08:10:45;;;;;;;36.50;20.10;;;;;;;11.60;55.67;97934.48;106162;1274;107829;-75
2022/03/30 08:13:14;;;;;;;32.90;17.70;;;;;;;11.73;55.44;97935.57;106136;1272;97912;-71
2022/03/30 08:15:45;;;;;;;32.80;16.30;;;;;;;12.05;55.49;97939.64;106076;1272;97986;-70
2022/03/30 08:18:14;;;;;;;31.90;17.20;;;;;;;12.53;55.56;97937.12;106062;1271;111371;-72
2022/03/30 08:23:28;;;;;;;37.80;20.50;;;;;;;13.11;55.24;97931.89;105916;1271;107584;-71
2022/03/30 08:25:57;;;;;;;35.60;19.10;;;;;;;13.12;55.20;97929.17;105955;1271;98562;-71
2022/03/30 08:28:27;;;;;;;37.50;19.90;;;;;;;13.16;55.12;97926.73;105965;1271;97889;-73
2022/03/30 08:30:57;;;;;;;34.90;18.30;;;;;;;13.24;54.85;97927.02;106104;1271;111413;-71
2022/03/30 08:33:27;;;;;;;36.70;20.20;;;;;;;13.46;54.95;97924.14;106224;1271;97848;-71
2022/03/30 08:35:59;;;;;;;33.00;19.10;;;;;;;13.85;54.93;97922.96;106186;1271;107756;-71
2022/03/30 08:38:27;;;;;;;33.60;20.20;;;;;;;14.34;54.92;97916.96;106205;1271;96361;-73
2022/03/30 08:40:58;;;;;;;36.00;18.30;;;;;;;14.69;54.84;97916.25;106215;1274;97851;-71
2022/03/30 08:43:27;;;;;;;32.00;18.70;;;;;;;14.75;54.33;97914.36;106090;1271;111553;-73
2022/03/30 08:45:56;;;;;;;33.10;18.80;;;;;;;14.80;54.26;97915.06;106164;1271;95927;-70
2022/03/30 08:48:26;;;;;;;35.10;20.10;;;;;;;14.95;54.28;97911.32;105869;1274;109390;-71
2022/03/30 08:50:59;;;;;;;33.80;19.90;;;;;;;15.16;54.15;97908.81;106003;1271;95205;-72
2022/03/30 08:53:28;;;;;;;37.10;21.10;;;;;;;15.38;54.16;97907.58;106047;1271;96147;-70
2022/03/30 08:55:55;;;;;;;36.70;21.00;;;;;;;15.47;53.84;97906.39;105987;1271;110940;-71
2022/03/30 08:58:23;;;;;;;36.70;20.60;;;;;;;15.59;53.79;97905.77;105929;1271;95963;-71
2022/03/30 09:00:52;;;;;;;36.10;20.90;;;;;;;15.63;53.78;97904.20;106007;1271;107741;-71
2022/03/30 09:03:20;;;;;;;33.30;19.50;;;;;;;15.51;53.26;97900.21;106122;1271;97880;-69
2022/03/30 09:05:49;;;;;;;32.30;19.90;;;;;;;15.37;53.19;97897.59;106133;1271;95976;-72
2022/03/30 09:08:25;;;;;;;33.50;20.40;;;;;;;15.23;53.13;97896.66;106207;1271;111381;-71
2022/03/30 09:10:59;;;;;;;33.70;20.40;;;;;;;15.16;52.98;97895.83;106264;1271;97867;-70
2022/03/30 09:13:27;;;;;;;33.40;19.50;;;;;;;15.10;52.86;97894.50;106126;1271;108841;-71
2022/03/30 09:15:55;;;;;;;33.20;19.80;;;;;;;15.08;52.81;97896.92;106285;1271;97988;-70
2022/03/30 09:18:24;;;;;;;35.30;19.60;;;;;;;15.06;52.61;97898.92;106152;1271;96986;-71
2022/03/30 09:20:55;;;;;;;33.00;19.60;;;;;;;15.18;52.47;97897.55;106129;1271;112081;-71
2022/03/30 09:23:29;;;;;;;32.80;18.90;;;;;;;15.35;52.39;97890.58;106114;1271;97148;-70
2022/03/30 09:26:00;;;;;;;32.40;19.30;;;;;;;15.52;52.18;97885.96;106230;1271;107733;-71
2022/03/30 09:28:31;;;;;;;32.80;18.70;;;;;;;15.54;51.83;97884.23;106220;1271;96103;-70
2022/03/30 09:31:00;;;;;;;31.70;18.30;;;;;;;15.63;51.84;97878.83;106129;1271;97979;-74
2022/03/30 09:33:29;;;;;;;34.30;19.50;;;;;;;15.74;51.91;97878.30;106112;1271;111350;-73
2022/03/30 09:35:56;;;;;;;34.40;19.00;;;;;;;15.64;51.44;97874.59;106194;1271;95891;-72
2022/03/30 09:38:25;;;;;;;31.60;17.80;;;;;;;15.66;51.63;97873.36;106180;1271;107912;-74
2022/03/30 09:40:57;;;;;;;32.60;17.80;;;;;;;15.70;51.16;97867.50;106158;1271;97945;-70
2022/03/30 09:43:34;;;;;;;29.70;17.00;;;;;;;15.79;51.13;97867.56;106166;1274;97873;-72
2022/03/30 09:46:04;;;;;;;32.10;18.80;;;;;;;15.72;50.77;97865.14;106344;1271;113295;-70
2022/03/30 09:48:49;;;;;;;30.70;17.20;;;;;;;15.61;50.54;97867.80;106215;1271;97967;-71
2022/03/30 09:51:24;;;;;;;30.80;17.10;;;;;;;15.56;50.47;97868.73;106137;1271;109304;-72
2022/03/30 09:53:52;;;;;;;31.80;16.70;;;;;;;15.56;50.42;97865.48;106114;1270;95300;-71
2022/03/30 09:56:24;;;;;;;28.50;16.10;;;;;;;15.46;50.13;97862.91;106199;1271;97871;-71
2022/03/30 09:59:02;;;;;;;28.00;14.80;;;;;;;15.30;49.97;97859.84;106106;1271;111059;-71
2022/03/30 10:01:33;;;;;;;27.30;14.80;;;;;;;15.20;49.86;97859.14;106157;1271;97823;-71
2022/03/30 10:04:08;;;;;;;29.70;15.20;;;;;;;15.21;49.67;97858.53;106091;1271;108197;-70
2022/03/30 10:06:40;;;;;;;26.70;14.40;;;;;;;15.20;49.61;97849.65;106101;1271;97936;-71
2022/03/30 10:09:16;;;;;;;28.40;14.70;;;;;;;15.17;49.13;97848.52;106148;1274;95950;-71
2022/03/30 10:11:44;;;;;;;29.40;15.00;;;;;;;14.99;46.85;97849.69;106160;1271;109757;-71
2022/03/30 10:14:16;;;;;;;27.80;14.20;;;;;;;14.72;48.53;97846.23;106110;1271;97883;-72
2022/03/30 10:16:44;;;;;;;28.80;13.10;;;;;;;14.61;48.71;97848.20;106131;1268;107551;-70
2022/03/30 10:19:14;;;;;;;30.20;13.90;;;;;;;14.62;48.77;97843.68;106109;1271;98545;-70
2022/03/30 10:21:43;;;;;;;27.30;13.10;;;;;;;14.51;48.44;97842.55;106178;1271;97875;-70
2022/03/30 10:24:39;;;;;;;26.80;14.60;;;;;;;14.26;48.09;97839.64;106209;1271;111488;-72
2022/03/30 10:27:19;;;;;;;26.70;13.20;;;;;;;13.99;47.89;97834.83;106202;1271;97855;-71
2022/03/30 10:30:03;;;;;;;29.40;13.50;;;;;;;13.94;47.82;97831.65;106116;1274;108296;-70
2022/03/30 10:32:34;;;;;;;28.10;12.70;;;;;;;13.98;47.82;97827.48;106291;1271;96376;-70
2022/03/30 10:35:08;;;;;;;23.60;11.00;;;;;;;14.03;47.19;97825.75;106206;1271;97890;-71
2022/03/30 10:37:56;;;;;;;25.30;12.30;;;;;;;14.01;47.19;97825.08;106273;1271;111317;-71
2022/03/30 10:40:29;;;;;;;26.90;13.60;;;;;;;14.02;47.04;97817.83;106242;1271;97893;-71
2022/03/30 10:43:00;;;;;;;25.60;12.30;;;;;;;14.04;47.21;97817.83;106202;1271;107749;-70
2022/03/30 10:45:28;;;;;;;26.60;12.70;;;;;;;14.00;47.05;97812.64;106370;1271;97875;-75
2022/03/30 10:48:07;;;;;;;25.90;13.10;;;;;;;13.86;46.79;97810.05;106151;1271;98005;-74
2022/03/30 10:50:53;;;;;;;29.20;12.90;;;;;;;13.79;46.66;97810.10;106128;1271;111434;-71
2022/03/30 10:53:31;;;;;;;25.90;12.40;;;;;;;13.76;46.65;97801.87;106200;1271;97949;-76
2022/03/30 10:56:05;;;;;;;28.60;14.00;;;;;;;13.80;46.60;97803.58;106153;1271;107728;-72
2022/03/30 10:58:58;;;;;;;25.40;13.20;;;;;;;13.81;46.51;97802.39;106219;1274;98005;-71
2022/03/30 11:01:32;;;;;;;28.70;14.90;;;;;;;13.74;46.28;97802.27;106156;1270;97907;-70
2022/03/30 11:04:06;;;;;;;26.60;13.20;;;;;;;13.59;45.91;97801.29;106128;1271;111323;-69
2022/03/30 11:06:50;;;;;;;27.40;13.10;;;;;;;13.47;45.87;97802.34;106261;1271;96269;-68
2022/03/30 11:09:28;;;;;;;29.80;13.90;;;;;;;13.38;45.74;97795.44;106199;1271;107527;-69
2022/03/30 11:12:10;;;;;;;27.30;14.00;;;;;;;13.31;45.69;97802.61;106225;1271;97953;-69
2022/03/30 11:14:43;;;;;;;27.30;13.10;;;;;;;13.32;45.66;97799.05;106207;1274;97892;-69
2022/03/30 11:17:32;;;;;;;28.30;13.70;;;;;;;13.38;45.47;97797.23;106199;1271;111411;-69
2022/03/30 11:20:00;;;;;;;24.60;12.10;;;;;;;13.35;45.36;97792.02;106146;1271;97896;-70
2022/03/30 11:22:32;;;;;;;26.60;13.50;;;;;;;13.36;45.30;97791.02;106149;1274;107572;-71
2022/03/30 11:25:13;;;;;;;27.30;12.90;;;;;;;13.36;45.33;97790.09;106280;1271;97531;-70
2022/03/30 11:27:42;;;;;;;25.20;13.00;;;;;;;13.46;45.14;97789.35;106232;1271;95272;-70
2022/03/30 11:30:13;;;;;;;25.80;12.70;;;;;;;13.52;45.06;97782.25;106240;1271;111957;-71
2022/03/30 11:32:54;;;;;;;29.60;13.40;;;;;;;13.61;45.11;97785.23;106203;1271;97873;-69
2022/03/30 11:35:34;;;;;;;26.50;12.50;;;;;;;13.69;45.16;97783.11;106010;1273;109153;-70